createdAt,value
2019-02-10T00:02:49.516Z,7.22
2019-02-10T00:05:54.447Z,7.18
2019-02-10T00:08:58.883Z,7.10
2019-02-10T00:12:04.285Z,7.03
2019-02-10T00:15:09.293Z,6.87
2019-02-10T00:18:13.726Z,6.89
2019-02-10T00:21:18.155Z,6.83
2019-02-10T00:24:22.600Z,6.86
2019-02-10T00:27:27.034Z,6.67
2019-02-10T00:30:31.781Z,6.65
2019-02-10T00:33:36.511Z,6.66
2019-02-10T00:36:41.244Z,6.70
2019-02-10T00:39:45.981Z,6.54
2019-02-10T00:42:50.416Z,6.60
2019-02-10T00:45:54.861Z,6.49
2019-02-10T00:48:59.291Z,6.67
2019-02-10T00:52:03.971Z,6.51
2019-02-10T00:55:08.804Z,6.45
2019-02-10T00:58:13.237Z,6.37
2019-02-10T01:01:17.670Z,6.36
2019-02-10T01:04:22.123Z,6.32
2019-02-10T01:07:26.545Z,6.42
2019-02-10T01:10:31.041Z,6.39
2019-02-10T01:13:35.486Z,6.47
2019-02-10T01:16:39.918Z,6.50
2019-02-10T01:19:44.358Z,6.51
2019-02-10T01:22:49.033Z,6.48
2019-02-10T01:25:53.761Z,6.39
2019-02-10T01:28:58.196Z,6.37
2019-02-10T01:32:02.616Z,6.35
2019-02-10T01:35:07.445Z,6.50
2019-02-10T01:38:12.168Z,6.67
2019-02-10T01:41:16.901Z,6.86
2019-02-10T01:44:21.631Z,6.96
2019-02-10T01:47:26.058Z,7.15
2019-02-10T01:50:30.500Z,7.36
2019-02-10T01:53:35.212Z,7.57
2019-02-10T01:56:39.942Z,7.73
2019-02-10T01:59:44.375Z,7.86
2019-02-10T02:02:48.805Z,7.94
2019-02-10T02:05:53.240Z,7.98
2019-02-10T02:08:57.669Z,8.06
2019-02-10T02:12:02.173Z,8.10
2019-02-10T02:15:11.228Z,8.10
2019-02-10T02:18:15.654Z,8.13
2019-02-10T02:21:20.104Z,8.13
2019-02-10T02:24:24.539Z,8.21
2019-02-10T02:27:28.969Z,8.18
2019-02-10T02:30:33.722Z,8.18
2019-02-10T02:33:38.148Z,8.13
2019-02-10T02:36:42.872Z,8.15
2019-02-10T02:39:47.299Z,8.16
2019-02-10T02:42:51.738Z,8.23
2019-02-10T02:45:56.447Z,8.25
2019-02-10T02:49:01.177Z,8.13
2019-02-10T02:52:05.619Z,8.02
2019-02-10T02:55:11.361Z,8.02
2019-02-10T02:58:15.798Z,7.98
2019-02-10T03:01:20.529Z,8.08
2019-02-10T03:04:24.960Z,8.13
2019-02-10T03:07:29.388Z,8.17
2019-02-10T03:10:33.824Z,8.15
2019-02-10T03:13:38.250Z,8.16
2019-02-10T03:16:42.690Z,8.20
2019-02-10T03:19:47.466Z,8.21
2019-02-10T03:22:52.195Z,8.19
2019-02-10T03:25:56.628Z,8.15
2019-02-10T03:29:01.050Z,8.28
2019-02-10T03:32:05.518Z,8.32
2019-02-10T03:35:10.675Z,8.25
2019-02-10T03:38:15.446Z,8.24
2019-02-10T03:41:20.168Z,8.33
2019-02-10T03:44:24.604Z,8.33
2019-02-10T03:47:29.330Z,8.26
2019-02-10T03:50:34.080Z,8.28
2019-02-10T03:53:38.490Z,8.38
2019-02-10T03:56:43.324Z,8.33
2019-02-10T03:59:47.828Z,8.34
2019-02-10T04:02:52.259Z,8.34
2019-02-10T04:05:56.698Z,8.39
2019-02-10T04:09:01.122Z,8.40
2019-02-10T04:12:05.555Z,8.40
2019-02-10T04:15:10.052Z,8.45
2019-02-10T04:18:14.485Z,8.40
2019-02-10T04:21:18.918Z,8.40
2019-02-10T04:24:23.643Z,8.42
2019-02-10T04:27:28.083Z,8.43
2019-02-10T04:30:32.500Z,8.51
2019-02-10T04:33:36.932Z,8.52
2019-02-10T04:36:41.376Z,8.45
2019-02-10T04:39:45.795Z,8.45
2019-02-10T04:42:50.230Z,8.54
2019-02-10T04:45:54.676Z,8.43
2019-02-10T04:48:59.119Z,8.34
2019-02-10T04:52:03.555Z,8.19
2019-02-10T04:55:09.124Z,8.09
2019-02-10T04:58:13.554Z,8.15
2019-02-10T05:01:18.056Z,8.07
2019-02-10T05:04:22.484Z,8.07
2019-02-10T05:07:27.207Z,8.04
2019-02-10T05:10:31.641Z,8.06
2019-02-10T05:13:36.074Z,8.12
2019-02-10T05:16:40.784Z,8.04
2019-02-10T05:19:45.513Z,8.02
2019-02-10T05:22:50.239Z,8.03
2019-02-10T05:25:54.666Z,8.03
2019-02-10T05:28:59.107Z,7.99
2019-02-10T05:32:03.828Z,7.95
2019-02-10T05:35:08.646Z,7.84
2019-02-10T05:38:13.076Z,7.91
2019-02-10T05:41:17.810Z,7.93
2019-02-10T05:44:22.540Z,7.97
2019-02-10T05:47:27.289Z,8.01
2019-02-10T05:50:32.022Z,8.01
2019-02-10T05:53:36.450Z,8.02
2019-02-10T05:56:41.163Z,8.06
2019-02-10T05:59:45.594Z,8.20
2019-02-10T06:02:50.318Z,8.23
2019-02-10T06:05:54.746Z,8.30
2019-02-10T06:08:59.184Z,8.29
2019-02-10T06:12:03.603Z,8.33
2019-02-10T06:15:10.288Z,8.31
2019-02-10T06:18:14.729Z,8.36
2019-02-10T06:21:19.148Z,8.39
2019-02-10T06:24:23.837Z,8.40
2019-02-10T06:27:28.566Z,8.40
2019-02-10T06:30:33.295Z,8.37
2019-02-10T06:33:38.033Z,8.38
2019-02-10T06:36:42.526Z,8.41
2019-02-10T06:39:47.278Z,8.45
2019-02-10T06:42:52.305Z,8.46
2019-02-10T06:45:56.874Z,8.46
2019-02-10T06:49:01.308Z,8.41
2019-02-10T06:52:05.789Z,8.47
2019-02-10T06:55:10.838Z,8.54
2019-02-10T06:58:15.269Z,8.69
2019-02-10T07:01:27.175Z,8.67
2019-02-10T07:04:31.891Z,8.72
2019-02-10T07:07:36.410Z,8.80
2019-02-10T07:10:40.852Z,8.85
2019-02-10T07:13:56.093Z,8.86
2019-02-10T07:17:07.650Z,8.86
2019-02-10T07:20:41.678Z,8.69
2019-02-10T07:23:58.558Z,8.56
2019-02-10T07:27:14.368Z,8.35
2019-02-10T07:30:41.592Z,8.28
2019-02-10T07:34:14.895Z,8.14
2019-02-10T07:37:36.101Z,8.11
2019-02-10T07:41:03.266Z,8.23
2019-02-10T07:44:20.913Z,8.14
2019-02-10T07:47:30.063Z,8.37
2019-02-10T07:50:50.998Z,8.42
2019-02-10T07:54:08.777Z,8.63
2019-02-10T07:57:21.296Z,8.76
2019-02-10T08:00:33.909Z,8.86
2019-02-10T08:04:00.963Z,9.04
2019-02-10T08:07:15.319Z,9.21
2019-02-10T08:10:51.840Z,9.36
2019-02-10T08:14:23.612Z,9.43
2019-02-10T08:17:35.644Z,9.43
2019-02-10T08:21:20.122Z,9.48
2019-02-10T08:25:19.125Z,9.47
2019-02-10T08:28:46.179Z,9.58
2019-02-10T08:32:18.296Z,9.63
2019-02-10T08:35:36.612Z,9.65
2019-02-10T08:38:57.827Z,9.78
2019-02-10T08:42:11.943Z,9.83
2019-02-10T08:45:38.664Z,9.81
2019-02-10T08:49:09.164Z,9.81
2019-02-10T08:52:24.321Z,9.79
2019-02-10T08:55:28.755Z,9.77
2019-02-10T08:58:33.190Z,9.73
2019-02-10T09:01:37.621Z,9.70
2019-02-10T09:04:42.348Z,9.74
2019-02-10T09:07:47.056Z,9.75
2019-02-10T09:10:51.493Z,9.80
2019-02-10T09:13:55.927Z,9.83
2019-02-10T09:17:00.373Z,9.86
2019-02-10T09:20:10.276Z,9.80
2019-02-10T09:23:14.719Z,9.98
2019-02-10T09:26:19.437Z,10.00
2019-02-10T09:29:24.165Z,10.03
2019-02-10T09:32:28.650Z,10.12
2019-02-10T09:35:33.080Z,10.24
2019-02-10T09:38:37.522Z,10.46
2019-02-10T09:41:41.956Z,10.66
2019-02-10T09:44:46.407Z,10.86
2019-02-10T09:47:50.864Z,11.11
2019-02-10T09:50:55.301Z,11.40
2019-02-10T09:54:00.065Z,11.82
2019-02-10T09:57:04.820Z,12.66
2019-02-10T10:00:13.369Z,14.63
2019-02-10T10:03:18.147Z,17.06
2019-02-10T10:06:22.721Z,18.47
2019-02-10T10:09:27.206Z,19.30
2019-02-10T10:12:31.644Z,18.63
2019-02-10T10:15:36.075Z,18.02
2019-02-10T10:18:40.526Z,17.52
2019-02-10T10:21:44.961Z,17.19
2019-02-10T10:24:50.717Z,16.12
2019-02-10T10:27:55.219Z,15.32
2019-02-10T10:30:59.659Z,14.63
2019-02-10T10:34:04.099Z,14.30
2019-02-10T10:37:08.533Z,13.96
2019-02-10T10:40:13.519Z,13.82
2019-02-10T10:43:17.946Z,13.84
2019-02-10T10:46:22.634Z,13.91
2019-02-10T10:49:27.367Z,14.13
2019-02-10T10:52:32.103Z,14.83
2019-02-10T10:55:36.544Z,14.65
2019-02-10T10:58:40.986Z,14.58
2019-02-10T11:01:45.429Z,14.75
2019-02-10T11:04:49.873Z,14.84
2019-02-10T11:07:54.305Z,14.63
2019-02-10T11:10:58.750Z,14.44
2019-02-10T11:14:03.201Z,14.38
2019-02-10T11:17:10.540Z,14.89
2019-02-10T11:20:14.137Z,16.00
2019-02-10T11:23:18.571Z,17.06
2019-02-10T11:26:23.314Z,17.36
2019-02-10T11:29:27.760Z,18.07
2019-02-10T11:32:32.197Z,18.18
2019-02-10T11:35:36.895Z,16.79
2019-02-10T11:38:41.336Z,16.85
2019-02-10T11:41:45.786Z,17.02
2019-02-10T11:44:50.227Z,17.75
2019-02-10T11:47:55.000Z,17.47
2019-02-10T11:51:00.444Z,16.91
2019-02-10T11:54:05.393Z,16.54
2019-02-10T11:57:10.222Z,16.53
2019-02-10T12:00:18.759Z,15.80
2019-02-10T12:03:23.200Z,15.72
2019-02-10T12:06:27.648Z,15.52
2019-02-10T12:09:32.416Z,15.17
2019-02-10T12:12:37.126Z,15.05
2019-02-10T12:15:41.569Z,14.96
2019-02-10T12:18:46.318Z,14.97
2019-02-10T12:21:50.761Z,14.85
2019-02-10T12:24:55.198Z,14.91
2019-02-10T12:27:59.644Z,14.92
2019-02-10T12:31:04.096Z,14.67
2019-02-10T12:34:08.827Z,14.80
2019-02-10T12:37:13.272Z,14.92
2019-02-10T12:40:17.705Z,14.78
2019-02-10T12:43:22.151Z,15.02
2019-02-10T12:46:26.589Z,14.68
2019-02-10T12:49:31.027Z,14.60
2019-02-10T12:52:35.473Z,14.38
2019-02-10T12:55:39.905Z,14.28
2019-02-10T12:58:44.635Z,14.30
2019-02-10T13:01:49.082Z,14.08
2019-02-10T13:04:53.519Z,13.80
2019-02-10T13:07:57.964Z,13.67
2019-02-10T13:11:02.436Z,13.30
2019-02-10T13:14:06.855Z,13.09
2019-02-10T13:17:11.574Z,12.60
2019-02-10T13:20:16.014Z,12.26
2019-02-10T13:23:20.730Z,11.94
2019-02-10T13:26:25.173Z,11.64
2019-02-10T13:29:29.608Z,11.38
2019-02-10T13:32:34.053Z,11.12
2019-02-10T13:35:38.496Z,11.16
2019-02-10T13:38:42.931Z,10.99
2019-02-10T13:41:46.149Z,10.99
2019-02-10T13:44:50.996Z,10.82
2019-02-10T13:47:55.816Z,10.75
2019-02-10T13:51:00.390Z,10.75
2019-02-10T13:54:04.834Z,10.71
2019-02-10T13:57:09.599Z,10.67
2019-02-10T14:00:23.091Z,10.64
2019-02-10T14:03:27.874Z,10.58
2019-02-10T14:06:32.319Z,10.42
2019-02-10T14:09:36.768Z,10.39
2019-02-10T14:12:41.553Z,10.49
2019-02-10T14:15:46.015Z,10.36
2019-02-10T14:18:50.464Z,10.31
2019-02-10T14:21:56.147Z,10.21
2019-02-10T14:25:00.884Z,10.23
2019-02-10T14:28:05.607Z,10.14
2019-02-10T14:31:10.038Z,10.12
2019-02-10T14:34:14.476Z,10.07
2019-02-10T14:37:19.194Z,10.06
2019-02-10T14:40:23.616Z,10.06
2019-02-10T14:43:28.063Z,10.14
2019-02-10T14:46:32.865Z,9.97
2019-02-10T14:49:37.623Z,9.94
2019-02-10T14:52:42.433Z,9.83
2019-02-10T14:55:46.864Z,9.79
2019-02-10T14:58:51.625Z,9.80
2019-02-10T15:01:56.453Z,9.75
2019-02-10T15:05:00.919Z,9.76
2019-02-10T15:08:05.357Z,9.67
2019-02-10T15:11:09.806Z,9.67
2019-02-10T15:14:14.261Z,9.74
2019-02-10T15:17:19.047Z,9.65
2019-02-10T15:20:23.473Z,9.69
2019-02-10T15:23:27.912Z,9.63
2019-02-10T15:26:32.345Z,9.65
2019-02-10T15:29:36.766Z,9.50
2019-02-10T15:32:41.531Z,9.54
2019-02-10T15:35:45.984Z,9.67
2019-02-10T15:38:50.423Z,9.59
2019-02-10T15:41:54.864Z,9.65
2019-02-10T15:44:59.576Z,9.61
2019-02-10T15:48:04.019Z,9.73
2019-02-10T15:51:08.731Z,9.71
2019-02-10T15:54:13.168Z,9.81
2019-02-10T15:57:17.606Z,9.77
2019-02-10T16:00:30.800Z,9.73
2019-02-10T16:03:35.264Z,9.31
2019-02-10T16:06:39.758Z,8.92
2019-02-10T16:09:44.493Z,8.53
2019-02-10T16:12:48.926Z,8.19
2019-02-10T16:15:53.414Z,8.01
2019-02-10T16:18:58.172Z,7.96
2019-02-10T16:22:02.609Z,7.81
2019-02-10T16:25:08.750Z,7.83
2019-02-10T16:28:13.187Z,7.87
2019-02-10T16:31:17.914Z,7.86
2019-02-10T16:34:22.351Z,7.87
2019-02-10T16:37:27.069Z,7.94
2019-02-10T16:40:31.498Z,7.93
2019-02-10T16:43:35.928Z,7.95
2019-02-10T16:46:40.647Z,7.91
2019-02-10T16:49:45.079Z,7.96
2019-02-10T16:52:49.807Z,7.97
2019-02-10T16:55:54.530Z,7.59
2019-02-10T16:58:59.421Z,7.35
2019-02-10T17:02:04.197Z,7.18
2019-02-10T17:05:09.038Z,7.01
2019-02-10T17:08:13.772Z,6.99
2019-02-10T17:11:18.200Z,6.80
2019-02-10T17:14:22.662Z,6.75
2019-02-10T17:17:27.081Z,6.60
2019-02-10T17:20:31.512Z,6.56
2019-02-10T17:23:35.952Z,6.64
2019-02-10T17:26:40.714Z,6.72
2019-02-10T17:29:46.065Z,6.77
2019-02-10T17:32:50.798Z,6.65
2019-02-10T17:35:55.226Z,6.41
2019-02-10T17:38:59.953Z,6.34
2019-02-10T17:42:04.386Z,6.26
2019-02-10T17:45:10.654Z,6.20
2019-02-10T17:48:15.105Z,6.29
2019-02-10T17:51:19.535Z,6.34
2019-02-10T17:54:24.214Z,6.48
2019-02-10T17:57:28.660Z,6.56
2019-02-10T18:00:34.744Z,6.58
2019-02-10T18:03:39.182Z,6.58
2019-02-10T18:06:43.628Z,6.59
2019-02-10T18:09:48.381Z,6.64
2019-02-10T18:12:52.828Z,6.74
2019-02-10T18:15:57.019Z,6.69
2019-02-10T18:19:12.062Z,6.65
2019-02-10T18:22:18.130Z,6.82
2019-02-10T18:25:24.527Z,6.81
2019-02-10T18:28:30.603Z,6.80
2019-02-10T18:31:42.862Z,6.74
2019-02-10T18:34:49.269Z,6.66
2019-02-10T18:37:58.314Z,6.74
2019-02-10T18:41:06.796Z,6.81
2019-02-10T18:44:19.124Z,6.81
2019-02-10T18:47:25.194Z,6.92
2019-02-10T18:50:36.954Z,6.95
2019-02-10T18:53:46.184Z,6.95
2019-02-10T18:56:52.245Z,6.96
2019-02-10T18:59:58.660Z,6.96
2019-02-10T19:03:05.037Z,6.96
2019-02-10T19:06:14.887Z,6.95
2019-02-10T19:09:22.469Z,6.97
2019-02-10T19:12:37.266Z,6.85
2019-02-10T19:15:46.007Z,6.95
2019-02-10T19:19:08.510Z,6.95
2019-02-10T19:22:20.312Z,6.97
2019-02-10T19:25:44.135Z,6.99
2019-02-10T19:28:52.942Z,6.95
2019-02-10T19:31:58.992Z,6.97
2019-02-10T19:35:17.341Z,6.95
2019-02-10T19:38:23.693Z,6.96
2019-02-10T19:41:30.065Z,6.96
2019-02-10T19:44:49.204Z,6.91
2019-02-10T19:47:55.631Z,6.97
2019-02-10T19:51:07.811Z,6.96
2019-02-10T19:54:19.373Z,6.93
2019-02-10T19:57:41.135Z,6.84
2019-02-10T20:00:53.022Z,6.78
2019-02-10T20:04:01.744Z,6.78
2019-02-10T20:07:19.555Z,6.83
2019-02-10T20:10:37.392Z,6.71
2019-02-10T20:13:49.232Z,6.79
2019-02-10T20:17:13.284Z,6.86
2019-02-10T20:20:22.462Z,6.81
2019-02-10T20:23:37.687Z,6.84
2019-02-10T20:26:44.092Z,6.80
2019-02-10T20:30:06.327Z,6.81
2019-02-10T20:33:20.011Z,6.92
2019-02-10T20:36:32.077Z,6.76
2019-02-10T20:39:41.095Z,6.75
2019-02-10T20:42:54.207Z,6.66
2019-02-10T20:46:18.670Z,6.55
2019-02-10T20:49:24.760Z,6.52
2019-02-10T20:52:33.618Z,6.38
2019-02-10T20:55:39.691Z,6.36
2019-02-10T20:58:57.322Z,6.19
2019-02-10T21:02:06.447Z,6.12
2019-02-10T21:05:12.841Z,6.04
2019-02-10T21:08:37.022Z,6.01
2019-02-10T21:11:43.170Z,5.92
2019-02-10T21:14:57.850Z,5.73
2019-02-10T21:18:11.149Z,5.68
2019-02-10T21:21:19.849Z,5.64
2019-02-10T21:24:34.874Z,5.68
2019-02-10T21:27:41.030Z,5.66
2019-02-10T21:30:45.249Z,5.67
2019-02-10T21:34:06.312Z,5.55
2019-02-10T21:37:15.320Z,5.33
2019-02-10T21:40:37.435Z,5.35
2019-02-10T21:43:46.171Z,5.37
2019-02-10T21:46:55.401Z,5.32
2019-02-10T21:49:59.962Z,5.36
2019-02-10T21:53:04.421Z,5.36
2019-02-10T21:56:09.260Z,5.42
2019-02-10T21:59:13.685Z,5.46
2019-02-10T22:02:18.172Z,5.56
2019-02-10T22:05:22.593Z,5.63
2019-02-10T22:08:27.151Z,5.64
2019-02-10T22:11:31.586Z,5.76
2019-02-10T22:14:36.017Z,5.81
2019-02-10T22:17:40.443Z,5.84
2019-02-10T22:20:45.174Z,5.93
2019-02-10T22:23:49.900Z,5.93
2019-02-10T22:26:54.636Z,6.03
2019-02-10T22:29:59.065Z,6.01
2019-02-10T22:33:03.503Z,5.96
2019-02-10T22:36:07.931Z,6.08
2019-02-10T22:39:12.737Z,6.18
2019-02-10T22:42:17.177Z,6.20
2019-02-10T22:45:21.601Z,6.14
2019-02-10T22:48:26.037Z,6.06
2019-02-10T22:51:30.472Z,6.21
2019-02-10T22:54:34.970Z,6.25
2019-02-10T22:57:41.125Z,6.32
2019-02-10T23:00:51.502Z,6.19
2019-02-10T23:03:55.940Z,6.23
2019-02-10T23:07:00.370Z,6.27
2019-02-10T23:10:05.534Z,6.35
2019-02-10T23:13:09.966Z,6.47
2019-02-10T23:16:14.391Z,6.38
2019-02-10T23:19:19.918Z,6.43
2019-02-10T23:22:24.702Z,6.45
2019-02-10T23:25:30.061Z,6.48
2019-02-10T23:28:34.565Z,6.45
2019-02-10T23:31:39.100Z,6.43
2019-02-10T23:34:43.962Z,6.35
2019-02-10T23:37:48.407Z,6.35
2019-02-10T23:40:52.836Z,6.32
2019-02-10T23:43:57.278Z,6.32
2019-02-10T23:47:02.087Z,6.28
2019-02-10T23:50:08.189Z,6.35
2019-02-10T23:53:12.940Z,6.22
2019-02-10T23:56:17.719Z,6.20
2019-02-10T23:59:22.400Z,6.17
